»·PEaware :: N245LG KFUL-KPSP

N245LG :: KFUL-KPSP

FLIGHT INFORMATION

Flight Status: Arrived
Operator: Privately registered:
United States
More flights under this callsign
Pilot: Erik A. (17503)
Aircraft: CESSNA 172 SKYHAWK
(C172)
More flights by this aircraft type
Origin: KFUL Fullerton Mun
United States
Destination: KPSP Palm Springs Intl
United States
More flights between these airports :: More routes between these airports
Route: +
File this flight plan on PilotEdge
Remarks:
Altitude:
(Current/Filed)
9,500ft
Speed:
(Current/Filed)
0kts
Departed: 08-Jan-18 01:14 PM
Arrived: 08-Jan-18 02:13 PM
Distance/Time
Traveled:
74nm/0:59
Distance/Time
To Go:
Arrived

Flight Plot

Page will automatically refresh every two minutes.

Flight plan parsing failed; only flown route is shown


Map Options




Map Legend


Flown Route
Filed Route
Departure Airport
Arrival Airport
Navaid (VOR, NDB)
Fix

Horizontal Profiles

Position Reports

Time Latitude Longitude Heading Altitude Ground
Speed
08-Jan-18 13:11 33.870776 -117.981372 323 99ft 0kts
08-Jan-18 13:12 33.870778 -117.981374 323 99ft 0kts
08-Jan-18 13:13 33.870780 -117.981376 323 99ft 0kts
08-Jan-18 13:14 33.871026 -117.981645 306 99ft 5kts
08-Jan-18 13:15 33.870677 -117.984606 284 99ft 4kts
08-Jan-18 13:16 33.870534 -117.984781 56 99ft 0kts
08-Jan-18 13:17 33.870726 -117.984642 343 99ft 0kts
08-Jan-18 13:18 33.870729 -117.984643 343 99ft 0kts
08-Jan-18 13:19 33.871153 -117.984401 74 99ft 19kts
08-Jan-18 13:20 33.872202 -117.965431 95 630ft 63kts
08-Jan-18 13:21 33.870879 -117.944421 81 1303ft 66kts
08-Jan-18 13:22 33.874394 -117.923708 83 1989ft 61kts
08-Jan-18 13:23 33.876753 -117.903779 78 2629ft 58kts
08-Jan-18 13:24 33.880403 -117.884472 78 3196ft 60kts
08-Jan-18 13:25 33.883467 -117.864388 81 3742ft 63kts
08-Jan-18 13:26 33.883693 -117.843013 75 4248ft 71kts
08-Jan-18 13:27 33.889854 -117.821044 74 4772ft 72kts
08-Jan-18 13:28 33.895616 -117.797901 82 5266ft 72kts
08-Jan-18 13:29 33.900929 -117.768582 91 5430ft 107kts
08-Jan-18 13:30 33.902716 -117.733519 95 5650ft 109kts
08-Jan-18 13:31 33.902281 -117.694307 93 5476ft 117kts
08-Jan-18 13:32 33.904567 -117.656840 95 5479ft 112kts
08-Jan-18 13:33 33.906161 -117.619813 87 5471ft 112kts
08-Jan-18 13:34 33.913028 -117.582679 78 5454ft 114kts
08-Jan-18 13:35 33.923300 -117.546709 78 5441ft 117kts
08-Jan-18 13:36 33.932572 -117.509601 77 5432ft 115kts
08-Jan-18 13:37 33.941037 -117.471945 84 5331ft 116kts
08-Jan-18 13:38 33.944898 -117.431684 97 4947ft 122kts
08-Jan-18 13:39 33.944127 -117.391903 92 4670ft 118kts
08-Jan-18 13:40 33.944328 -117.352066 91 4284ft 118kts
08-Jan-18 13:41 33.944980 -117.312930 89 3987ft 115kts
08-Jan-18 13:42 33.945249 -117.275963 93 3929ft 104kts
08-Jan-18 13:43 33.945732 -117.241005 90 3980ft 104kts
08-Jan-18 13:44 33.946324 -117.205749 96 4017ft 104kts
08-Jan-18 13:45 33.948008 -117.170538 83 4050ft 107kts
08-Jan-18 13:46 33.950012 -117.135995 92 4303ft 99kts
08-Jan-18 13:47 33.945751 -117.102701 95 4632ft 100kts
08-Jan-18 13:48 33.942777 -117.069764 97 5046ft 97kts
08-Jan-18 13:49 33.941216 -117.035483 101 5324ft 102kts
08-Jan-18 13:50 33.939308 -117.001168 99 5606ft 105kts
08-Jan-18 13:51 33.937800 -116.963275 96 5524ft 122kts
08-Jan-18 13:52 33.935370 -116.922588 100 5209ft 124kts
08-Jan-18 13:53 33.931494 -116.885925 106 5582ft 106kts
08-Jan-18 13:54 33.927627 -116.849912 101 5716ft 111kts
08-Jan-18 13:55 33.925239 -116.811677 103 5647ft 115kts
08-Jan-18 13:56 33.924086 -116.772459 95 5696ft 127kts
08-Jan-18 13:57 33.924900 -116.731218 97 5279ft 119kts
08-Jan-18 13:58 33.923425 -116.691630 102 4651ft 116kts
08-Jan-18 13:59 33.916823 -116.653790 106 4105ft 114kts
08-Jan-18 14:00 33.908901 -116.616853 107 3394ft 113kts
08-Jan-18 14:01 33.900292 -116.580907 109 2763ft 107kts
08-Jan-18 14:02 33.888443 -116.550360 124 2458ft 101kts
08-Jan-18 14:03 33.870806 -116.524061 135 2168ft 101kts
08-Jan-18 14:04 33.848962 -116.502562 143 1702ft 101kts
08-Jan-18 14:05 33.825888 -116.483842 146 1287ft 99kts
08-Jan-18 14:06 33.805825 -116.478293 235 991ft 68kts
08-Jan-18 14:07 33.817505 -116.494110 325 682ft 71kts
08-Jan-18 14:08 33.831889 -116.506703 323 526ft 73kts
08-Jan-18 14:09 33.849968 -116.517326 348 1273ft 72kts
08-Jan-18 14:10 33.853100 -116.500039 143 1629ft 94kts
08-Jan-18 14:11 33.829151 -116.484257 151 1478ft 94kts
08-Jan-18 14:12 33.816884 -116.492558 302 812ft 77kts
08-Jan-18 14:13 33.830941 -116.505878 317 509ft 72kts
08-Jan-18 14:14 33.851754 -116.521812 331 1114ft 92kts
08-Jan-18 14:15 33.862069 -116.511046 138 1749ft 86kts
08-Jan-18 14:16 33.839147 -116.492024 148 1609ft 107kts
08-Jan-18 14:17 33.815033 -116.476551 193 1134ft 76kts
08-Jan-18 14:18 33.815066 -116.491763 327 708ft 61kts
08-Jan-18 14:19 33.826767 -116.501792 38 480ft 9kts
08-Jan-18 14:20 33.826811 -116.501262 140 480ft 8kts
08-Jan-18 14:21 33.823748 -116.498285 149 480ft 14kts
08-Jan-18 14:22 33.823068 -116.498086 46 480ft 0kts
08-Jan-18 14:23 33.823071 -116.498082 46 480ft 0kts
08-Jan-18 14:24 33.823071 -116.498082 46 480ft 0kts

Navigation Log

Ident Type
Flight plan parsing failed, navigation log unavailable